sensor_id;sensor_type;location;lat;lon;timestamp;P1;durP1;ratioP1;P2;durP2;ratioP2
19406;SDS011;9839;53.364;-1.204;2023-05-07T00:01:49;20.65;;;10.60;;
19406;SDS011;9839;53.364;-1.204;2023-05-07T00:04:15;15.85;;;9.32;;
19406;SDS011;9839;53.364;-1.204;2023-05-07T00:06:40;19.42;;;10.68;;
19406;SDS011;9839;53.364;-1.204;2023-05-07T00:09:06;18.52;;;10.70;;
19406;SDS011;9839;53.364;-1.204;2023-05-07T00:11:32;22.27;;;11.13;;
19406;SDS011;9839;53.364;-1.204;2023-05-07T00:13:58;15.43;;;9.23;;
19406;SDS011;9839;53.364;-1.204;2023-05-07T00:16:23;16.45;;;9.20;;
19406;SDS011;9839;53.364;-1.204;2023-05-07T00:18:49;18.10;;;10.30;;
19406;SDS011;9839;53.364;-1.204;2023-05-07T00:21:15;16.48;;;10.10;;
19406;SDS011;9839;53.364;-1.204;2023-05-07T00:23:41;21.35;;;10.93;;
19406;SDS011;9839;53.364;-1.204;2023-05-07T00:26:06;19.80;;;10.80;;
19406;SDS011;9839;53.364;-1.204;2023-05-07T00:28:31;20.75;;;9.95;;
19406;SDS011;9839;53.364;-1.204;2023-05-07T00:30:57;15.70;;;9.32;;
19406;SDS011;9839;53.364;-1.204;2023-05-07T00:33:22;14.68;;;8.50;;
19406;SDS011;9839;53.364;-1.204;2023-05-07T00:35:48;17.85;;;9.50;;
19406;SDS011;9839;53.364;-1.204;2023-05-07T00:38:13;16.88;;;9.15;;
19406;SDS011;9839;53.364;-1.204;2023-05-07T00:40:39;14.40;;;8.50;;
19406;SDS011;9839;53.364;-1.204;2023-05-07T00:43:05;16.48;;;9.00;;
19406;SDS011;9839;53.364;-1.204;2023-05-07T00:45:32;22.15;;;10.23;;
19406;SDS011;9839;53.364;-1.204;2023-05-07T00:47:59;17.83;;;9.75;;
19406;SDS011;9839;53.364;-1.204;2023-05-07T00:50:25;20.58;;;9.75;;
19406;SDS011;9839;53.364;-1.204;2023-05-07T00:52:52;15.90;;;8.90;;
19406;SDS011;9839;53.364;-1.204;2023-05-07T00:55:18;20.58;;;10.07;;
19406;SDS011;9839;53.364;-1.204;2023-05-07T00:57:43;17.58;;;10.18;;
19406;SDS011;9839;53.364;-1.204;2023-05-07T01:00:09;15.52;;;9.07;;
19406;SDS011;9839;53.364;-1.204;2023-05-07T01:02:37;20.48;;;9.68;;
19406;SDS011;9839;53.364;-1.204;2023-05-07T01:05:03;17.05;;;9.73;;
19406;SDS011;9839;53.364;-1.204;2023-05-07T01:07:31;18.45;;;9.93;;
19406;SDS011;9839;53.364;-1.204;2023-05-07T01:09:57;18.13;;;9.57;;
19406;SDS011;9839;53.364;-1.204;2023-05-07T01:12:23;16.50;;;8.02;;
19406;SDS011;9839;53.364;-1.204;2023-05-07T01:14:49;18.00;;;9.90;;
19406;SDS011;9839;53.364;-1.204;2023-05-07T01:17:15;18.70;;;9.68;;
19406;SDS011;9839;53.364;-1.204;2023-05-07T01:19:41;16.88;;;8.40;;
19406;SDS011;9839;53.364;-1.204;2023-05-07T01:22:08;18.15;;;9.48;;
19406;SDS011;9839;53.364;-1.204;2023-05-07T01:24:34;14.73;;;8.27;;
19406;SDS011;9839;53.364;-1.204;2023-05-07T01:27:01;15.25;;;7.95;;
19406;SDS011;9839;53.364;-1.204;2023-05-07T01:29:27;15.13;;;8.63;;
19406;SDS011;9839;53.364;-1.204;2023-05-07T01:31:53;17.98;;;7.85;;
19406;SDS011;9839;53.364;-1.204;2023-05-07T01:34:20;14.55;;;7.95;;
19406;SDS011;9839;53.364;-1.204;2023-05-07T01:36:46;14.43;;;7.40;;
19406;SDS011;9839;53.364;-1.204;2023-05-07T01:39:12;13.98;;;6.97;;
19406;SDS011;9839;53.364;-1.204;2023-05-07T01:41:38;15.63;;;7.70;;
19406;SDS011;9839;53.364;-1.204;2023-05-07T01:44:03;12.50;;;7.40;;
19406;SDS011;9839;53.364;-1.204;2023-05-07T01:46:31;16.05;;;7.85;;
19406;SDS011;9839;53.364;-1.204;2023-05-07T01:48:56;13.95;;;6.95;;
19406;SDS011;9839;53.364;-1.204;2023-05-07T01:51:22;12.98;;;6.97;;
19406;SDS011;9839;53.364;-1.204;2023-05-07T01:53:47;13.07;;;6.95;;
19406;SDS011;9839;53.364;-1.204;2023-05-07T01:56:16;13.85;;;6.97;;
19406;SDS011;9839;53.364;-1.204;2023-05-07T01:58:43;11.90;;;6.43;;
19406;SDS011;9839;53.364;-1.204;2023-05-07T02:01:09;13.07;;;6.13;;
19406;SDS011;9839;53.364;-1.204;2023-05-07T02:03:35;12.30;;;5.78;;
19406;SDS011;9839;53.364;-1.204;2023-05-07T02:06:00;11.00;;;5.85;;
19406;SDS011;9839;53.364;-1.204;2023-05-07T02:08:26;13.05;;;6.15;;
19406;SDS011;9839;53.364;-1.204;2023-05-07T02:10:51;13.50;;;6.55;;
19406;SDS011;9839;53.364;-1.204;2023-05-07T02:13:18;12.90;;;6.13;;
19406;SDS011;9839;53.364;-1.204;2023-05-07T02:15:44;10.90;;;6.20;;
19406;SDS011;9839;53.364;-1.204;2023-05-07T02:18:14;12.50;;;6.13;;
19406;SDS011;9839;53.364;-1.204;2023-05-07T02:20:40;14.88;;;6.85;;
19406;SDS011;9839;53.364;-1.204;2023-05-07T02:23:06;13.95;;;7.55;;
19406;SDS011;9839;53.364;-1.204;2023-05-07T02:25:31;17.13;;;7.32;;
19406;SDS011;9839;53.364;-1.204;2023-05-07T02:27:56;14.23;;;7.13;;
19406;SDS011;9839;53.364;-1.204;2023-05-07T02:30:22;15.07;;;7.22;;
19406;SDS011;9839;53.364;-1.204;2023-05-07T02:32:48;17.90;;;7.60;;
19406;SDS011;9839;53.364;-1.204;2023-05-07T02:35:14;15.30;;;6.75;;
19406;SDS011;9839;53.364;-1.204;2023-05-07T02:37:40;14.02;;;6.55;;
19406;SDS011;9839;53.364;-1.204;2023-05-07T02:40:05;15.70;;;7.63;;
19406;SDS011;9839;53.364;-1.204;2023-05-07T02:42:31;15.32;;;6.85;;
19406;SDS011;9839;53.364;-1.204;2023-05-07T02:44:57;16.77;;;7.38;;
19406;SDS011;9839;53.364;-1.204;2023-05-07T02:47:22;16.88;;;7.03;;
19406;SDS011;9839;53.364;-1.204;2023-05-07T02:49:48;17.08;;;8.00;;
19406;SDS011;9839;53.364;-1.204;2023-05-07T02:52:13;20.58;;;8.20;;
19406;SDS011;9839;53.364;-1.204;2023-05-07T02:54:39;16.73;;;7.22;;
19406;SDS011;9839;53.364;-1.204;2023-05-07T02:57:04;18.02;;;7.75;;
19406;SDS011;9839;53.364;-1.204;2023-05-07T02:59:29;17.33;;;7.22;;
19406;SDS011;9839;53.364;-1.204;2023-05-07T03:01:55;18.92;;;7.72;;
19406;SDS011;9839;53.364;-1.204;2023-05-07T03:04:20;17.48;;;7.35;;
19406;SDS011;9839;53.364;-1.204;2023-05-07T03:06:46;12.93;;;5.85;;
19406;SDS011;9839;53.364;-1.204;2023-05-07T03:09:11;11.90;;;5.72;;
19406;SDS011;9839;53.364;-1.204;2023-05-07T03:11:37;15.48;;;6.15;;
19406;SDS011;9839;53.364;-1.204;2023-05-07T03:14:02;13.23;;;5.70;;
19406;SDS011;9839;53.364;-1.204;2023-05-07T03:16:28;17.40;;;7.05;;
19406;SDS011;9839;53.364;-1.204;2023-05-07T03:18:53;19.35;;;7.45;;
19406;SDS011;9839;53.364;-1.204;2023-05-07T03:21:18;20.52;;;7.90;;
19406;SDS011;9839;53.364;-1.204;2023-05-07T03:23:44;20.75;;;7.32;;
19406;SDS011;9839;53.364;-1.204;2023-05-07T03:26:09;18.38;;;6.78;;
19406;SDS011;9839;53.364;-1.204;2023-05-07T03:28:36;18.83;;;7.07;;
19406;SDS011;9839;53.364;-1.204;2023-05-07T03:31:02;18.80;;;7.07;;
19406;SDS011;9839;53.364;-1.204;2023-05-07T03:33:27;23.10;;;8.50;;
19406;SDS011;9839;53.364;-1.204;2023-05-07T03:35:53;25.60;;;8.68;;
19406;SDS011;9839;53.364;-1.204;2023-05-07T03:38:18;31.98;;;10.02;;
19406;SDS011;9839;53.364;-1.204;2023-05-07T03:40:44;28.05;;;10.30;;
19406;SDS011;9839;53.364;-1.204;2023-05-07T03:43:09;27.73;;;9.93;;
19406;SDS011;9839;53.364;-1.204;2023-05-07T03:45:35;30.25;;;10.43;;
19406;SDS011;9839;53.364;-1.204;2023-05-07T03:48:00;34.83;;;10.55;;
19406;SDS011;9839;53.364;-1.204;2023-05-07T03:50:26;28.65;;;10.27;;
19406;SDS011;9839;53.364;-1.204;2023-05-07T03:52:51;31.17;;;10.68;;
19406;SDS011;9839;53.364;-1.204;2023-05-07T03:55:17;33.70;;;9.10;;
19406;SDS011;9839;53.364;-1.204;2023-05-07T03:57:42;26.35;;;9.50;;
19406;SDS011;9839;53.364;-1.204;2023-05-07T04:00:08;27.75;;;9.10;;
19406;SDS011;9839;53.364;-1.204;2023-05-07T04:02:34;28.45;;;9.70;;
19406;SDS011;9839;53.364;-1.204;2023-05-07T04:04:59;34.55;;;10.07;;
19406;SDS011;9839;53.364;-1.204;2023-05-07T04:07:25;31.17;;;10.10;;
19406;SDS011;9839;53.364;-1.204;2023-05-07T04:09:50;30.67;;;10.45;;
19406;SDS011;9839;53.364;-1.204;2023-05-07T04:12:16;31.83;;;9.63;;
19406;SDS011;9839;53.364;-1.204;2023-05-07T04:14:41;30.48;;;9.40;;
19406;SDS011;9839;53.364;-1.204;2023-05-07T04:17:08;29.08;;;9.75;;
19406;SDS011;9839;53.364;-1.204;2023-05-07T04:19:36;31.45;;;9.77;;
19406;SDS011;9839;53.364;-1.204;2023-05-07T04:22:01;36.88;;;10.80;;
19406;SDS011;9839;53.364;-1.204;2023-05-07T04:24:26;30.40;;;9.88;;
19406;SDS011;9839;53.364;-1.204;2023-05-07T04:26:52;27.92;;;10.13;;
19406;SDS011;9839;53.364;-1.204;2023-05-07T04:29:17;29.85;;;8.68;;
19406;SDS011;9839;53.364;-1.204;2023-05-07T04:31:43;27.63;;;8.88;;
19406;SDS011;9839;53.364;-1.204;2023-05-07T04:34:10;28.67;;;8.73;;
19406;SDS011;9839;53.364;-1.204;2023-05-07T04:36:36;25.05;;;8.05;;
19406;SDS011;9839;53.364;-1.204;2023-05-07T04:39:03;23.00;;;8.38;;
19406;SDS011;9839;53.364;-1.204;2023-05-07T04:41:28;31.48;;;9.60;;
19406;SDS011;9839;53.364;-1.204;2023-05-07T04:43:54;28.95;;;8.80;;
19406;SDS011;9839;53.364;-1.204;2023-05-07T04:46:19;26.67;;;8.95;;
19406;SDS011;9839;53.364;-1.204;2023-05-07T04:48:45;28.02;;;8.63;;
19406;SDS011;9839;53.364;-1.204;2023-05-07T04:51:10;23.00;;;7.40;;
19406;SDS011;9839;53.364;-1.204;2023-05-07T04:53:36;26.50;;;8.57;;
19406;SDS011;9839;53.364;-1.204;2023-05-07T04:56:02;25.13;;;7.43;;
19406;SDS011;9839;53.364;-1.204;2023-05-07T04:58:28;27.85;;;9.10;;
19406;SDS011;9839;53.364;-1.204;2023-05-07T05:00:56;27.73;;;8.23;;
19406;SDS011;9839;53.364;-1.204;2023-05-07T05:03:22;25.90;;;8.88;;
19406;SDS011;9839;53.364;-1.204;2023-05-07T05:05:50;22.20;;;7.35;;
19406;SDS011;9839;53.364;-1.204;2023-05-07T05:08:17;22.02;;;7.72;;
19406;SDS011;9839;53.364;-1.204;2023-05-07T05:10:42;23.48;;;8.60;;
19406;SDS011;9839;53.364;-1.204;2023-05-07T05:13:08;22.33;;;7.55;;
19406;SDS011;9839;53.364;-1.204;2023-05-07T05:15:34;22.95;;;7.10;;
19406;SDS011;9839;53.364;-1.204;2023-05-07T05:18:00;22.73;;;8.50;;
19406;SDS011;9839;53.364;-1.204;2023-05-07T05:20:25;17.77;;;7.30;;
19406;SDS011;9839;53.364;-1.204;2023-05-07T05:22:51;20.80;;;9.07;;
19406;SDS011;9839;53.364;-1.204;2023-05-07T05:25:16;18.35;;;7.65;;
19406;SDS011;9839;53.364;-1.204;2023-05-07T05:27:42;17.92;;;7.50;;
19406;SDS011;9839;53.364;-1.204;2023-05-07T05:30:07;15.88;;;6.72;;
19406;SDS011;9839;53.364;-1.204;2023-05-07T05:32:33;16.77;;;6.47;;
19406;SDS011;9839;53.364;-1.204;2023-05-07T05:34:58;16.98;;;6.60;;
19406;SDS011;9839;53.364;-1.204;2023-05-07T05:37:24;16.42;;;6.45;;
19406;SDS011;9839;53.364;-1.204;2023-05-07T05:39:50;17.83;;;7.00;;
19406;SDS011;9839;53.364;-1.204;2023-05-07T05:42:15;16.92;;;6.63;;
19406;SDS011;9839;53.364;-1.204;2023-05-07T05:44:41;16.58;;;6.03;;
19406;SDS011;9839;53.364;-1.204;2023-05-07T05:47:06;13.98;;;5.90;;
19406;SDS011;9839;53.364;-1.204;2023-05-07T05:49:32;14.32;;;6.40;;
19406;SDS011;9839;53.364;-1.204;2023-05-07T05:51:57;14.35;;;6.10;;
19406;SDS011;9839;53.364;-1.204;2023-05-07T05:54:23;12.52;;;6.30;;
19406;SDS011;9839;53.364;-1.204;2023-05-07T05:56:48;16.25;;;6.40;;
19406;SDS011;9839;53.364;-1.204;2023-05-07T05:59:14;12.38;;;5.68;;
19406;SDS011;9839;53.364;-1.204;2023-05-07T06:01:39;13.45;;;6.43;;
19406;SDS011;9839;53.364;-1.204;2023-05-07T06:04:05;13.27;;;6.28;;
19406;SDS011;9839;53.364;-1.204;2023-05-07T06:06:30;12.95;;;6.30;;
19406;SDS011;9839;53.364;-1.204;2023-05-07T06:08:56;13.32;;;6.35;;
19406;SDS011;9839;53.364;-1.204;2023-05-07T06:11:22;17.63;;;7.57;;
19406;SDS011;9839;53.364;-1.204;2023-05-07T06:13:47;19.58;;;8.02;;
19406;SDS011;9839;53.364;-1.204;2023-05-07T06:16:13;17.48;;;8.02;;
19406;SDS011;9839;53.364;-1.204;2023-05-07T06:18:40;19.15;;;8.82;;
19406;SDS011;9839;53.364;-1.204;2023-05-07T06:21:05;19.83;;;8.93;;
19406;SDS011;9839;53.364;-1.204;2023-05-07T06:23:30;15.50;;;7.80;;
19406;SDS011;9839;53.364;-1.204;2023-05-07T06:25:56;19.88;;;8.18;;
19406;SDS011;9839;53.364;-1.204;2023-05-07T06:28:21;20.17;;;8.75;;
19406;SDS011;9839;53.364;-1.204;2023-05-07T06:30:47;21.70;;;8.68;;
19406;SDS011;9839;53.364;-1.204;2023-05-07T06:33:15;18.45;;;8.32;;
19406;SDS011;9839;53.364;-1.204;2023-05-07T06:35:40;20.58;;;9.70;;
19406;SDS011;9839;53.364;-1.204;2023-05-07T06:38:06;20.05;;;8.77;;
19406;SDS011;9839;53.364;-1.204;2023-05-07T06:40:31;19.95;;;8.55;;
19406;SDS011;9839;53.364;-1.204;2023-05-07T06:42:57;19.27;;;7.97;;
19406;SDS011;9839;53.364;-1.204;2023-05-07T06:45:22;16.20;;;7.45;;
19406;SDS011;9839;53.364;-1.204;2023-05-07T06:47:48;16.88;;;8.20;;
19406;SDS011;9839;53.364;-1.204;2023-05-07T06:50:14;19.35;;;7.72;;
19406;SDS011;9839;53.364;-1.204;2023-05-07T06:52:41;15.45;;;7.22;;
19406;SDS011;9839;53.364;-1.204;2023-05-07T06:55:07;15.75;;;7.25;;
19406;SDS011;9839;53.364;-1.204;2023-05-07T06:57:32;16.40;;;8.15;;
19406;SDS011;9839;53.364;-1.204;2023-05-07T06:59:58;14.13;;;7.63;;
19406;SDS011;9839;53.364;-1.204;2023-05-07T07:02:23;14.25;;;8.15;;
19406;SDS011;9839;53.364;-1.204;2023-05-07T07:04:49;17.48;;;7.75;;
19406;SDS011;9839;53.364;-1.204;2023-05-07T07:07:14;14.65;;;8.10;;
19406;SDS011;9839;53.364;-1.204;2023-05-07T07:09:40;17.02;;;7.90;;
19406;SDS011;9839;53.364;-1.204;2023-05-07T07:12:05;14.48;;;7.90;;
19406;SDS011;9839;53.364;-1.204;2023-05-07T07:14:31;14.07;;;8.13;;
19406;SDS011;9839;53.364;-1.204;2023-05-07T07:16:56;13.15;;;6.82;;
19406;SDS011;9839;53.364;-1.204;2023-05-07T07:19:22;12.00;;;6.68;;
19406;SDS011;9839;53.364;-1.204;2023-05-07T07:21:47;15.30;;;7.45;;
19406;SDS011;9839;53.364;-1.204;2023-05-07T07:24:13;14.23;;;6.47;;
19406;SDS011;9839;53.364;-1.204;2023-05-07T07:26:44;12.00;;;6.93;;
19406;SDS011;9839;53.364;-1.204;2023-05-07T07:29:09;11.57;;;6.80;;
19406;SDS011;9839;53.364;-1.204;2023-05-07T07:31:35;11.23;;;6.75;;
19406;SDS011;9839;53.364;-1.204;2023-05-07T07:34:00;15.02;;;7.78;;
19406;SDS011;9839;53.364;-1.204;2023-05-07T07:36:26;13.95;;;6.88;;
19406;SDS011;9839;53.364;-1.204;2023-05-07T07:38:52;11.73;;;6.93;;
19406;SDS011;9839;53.364;-1.204;2023-05-07T07:41:18;12.43;;;7.55;;
19406;SDS011;9839;53.364;-1.204;2023-05-07T07:43:44;14.10;;;6.97;;
19406;SDS011;9839;53.364;-1.204;2023-05-07T07:46:11;14.30;;;6.70;;
19406;SDS011;9839;53.364;-1.204;2023-05-07T07:48:37;11.38;;;6.72;;
19406;SDS011;9839;53.364;-1.204;2023-05-07T07:51:02;13.55;;;6.53;;
19406;SDS011;9839;53.364;-1.204;2023-05-07T07:53:28;11.95;;;7.43;;
19406;SDS011;9839;53.364;-1.204;2023-05-07T07:55:53;9.40;;;5.78;;
19406;SDS011;9839;53.364;-1.204;2023-05-07T07:58:19;10.63;;;5.75;;
19406;SDS011;9839;53.364;-1.204;2023-05-07T08:00:44;9.55;;;5.60;;
19406;SDS011;9839;53.364;-1.204;2023-05-07T08:03:10;10.95;;;5.55;;
19406;SDS011;9839;53.364;-1.204;2023-05-07T08:05:35;8.48;;;5.43;;
19406;SDS011;9839;53.364;-1.204;2023-05-07T08:08:01;9.05;;;5.80;;
19406;SDS011;9839;53.364;-1.204;2023-05-07T08:10:27;8.55;;;5.15;;
19406;SDS011;9839;53.364;-1.204;2023-05-07T08:12:52;8.55;;;4.97;;
19406;SDS011;9839;53.364;-1.204;2023-05-07T08:15:18;8.43;;;4.75;;
19406;SDS011;9839;53.364;-1.204;2023-05-07T08:17:43;9.40;;;5.10;;
19406;SDS011;9839;53.364;-1.204;2023-05-07T08:20:09;7.25;;;4.30;;
19406;SDS011;9839;53.364;-1.204;2023-05-07T08:22:35;5.78;;;3.90;;
19406;SDS011;9839;53.364;-1.204;2023-05-07T08:25:03;6.25;;;3.90;;
19406;SDS011;9839;53.364;-1.204;2023-05-07T08:27:29;6.55;;;3.42;;
19406;SDS011;9839;53.364;-1.204;2023-05-07T08:29:54;6.63;;;4.25;;
19406;SDS011;9839;53.364;-1.204;2023-05-07T08:32:20;8.30;;;4.15;;
19406;SDS011;9839;53.364;-1.204;2023-05-07T08:34:46;4.60;;;3.28;;
19406;SDS011;9839;53.364;-1.204;2023-05-07T08:37:12;5.97;;;3.55;;
19406;SDS011;9839;53.364;-1.204;2023-05-07T08:39:38;5.68;;;3.00;;
19406;SDS011;9839;53.364;-1.204;2023-05-07T08:42:03;5.18;;;3.00;;
19406;SDS011;9839;53.364;-1.204;2023-05-07T08:44:33;6.90;;;3.60;;
19406;SDS011;9839;53.364;-1.204;2023-05-07T08:47:00;4.63;;;3.50;;
19406;SDS011;9839;53.364;-1.204;2023-05-07T08:49:26;4.28;;;2.75;;
19406;SDS011;9839;53.364;-1.204;2023-05-07T08:51:52;7.38;;;3.20;;
19406;SDS011;9839;53.364;-1.204;2023-05-07T08:54:18;3.65;;;2.60;;
19406;SDS011;9839;53.364;-1.204;2023-05-07T08:56:44;3.72;;;2.60;;
19406;SDS011;9839;53.364;-1.204;2023-05-07T08:59:10;5.03;;;2.08;;
19406;SDS011;9839;53.364;-1.204;2023-05-07T09:01:35;4.82;;;2.08;;
19406;SDS011;9839;53.364;-1.204;2023-05-07T09:04:01;3.90;;;1.98;;
19406;SDS011;9839;53.364;-1.204;2023-05-07T09:06:27;8.02;;;2.60;;
19406;SDS011;9839;53.364;-1.204;2023-05-07T09:08:53;3.00;;;2.35;;
19406;SDS011;9839;53.364;-1.204;2023-05-07T09:11:22;3.35;;;1.40;;
19406;SDS011;9839;53.364;-1.204;2023-05-07T09:13:48;1.88;;;1.33;;
19406;SDS011;9839;53.364;-1.204;2023-05-07T09:16:16;3.25;;;1.42;;
19406;SDS011;9839;53.364;-1.204;2023-05-07T09:18:42;2.53;;;1.45;;
19406;SDS011;9839;53.364;-1.204;2023-05-07T09:21:11;1.85;;;1.25;;
19406;SDS011;9839;53.364;-1.204;2023-05-07T09:23:39;2.42;;;1.50;;
19406;SDS011;9839;53.364;-1.204;2023-05-07T09:26:05;2.95;;;1.40;;
19406;SDS011;9839;53.364;-1.204;2023-05-07T09:28:39;1.30;;;1.17;;
19406;SDS011;9839;53.364;-1.204;2023-05-07T09:31:08;1.98;;;1.13;;
19406;SDS011;9839;53.364;-1.204;2023-05-07T09:33:34;1.77;;;1.20;;
19406;SDS011;9839;53.364;-1.204;2023-05-07T09:36:06;1.73;;;1.20;;
19406;SDS011;9839;53.364;-1.204;2023-05-07T09:38:34;1.83;;;1.17;;
19406;SDS011;9839;53.364;-1.204;2023-05-07T09:41:12;2.95;;;1.20;;
19406;SDS011;9839;53.364;-1.204;2023-05-07T09:43:39;2.13;;;1.30;;
19406;SDS011;9839;53.364;-1.204;2023-05-07T09:46:14;2.15;;;1.33;;
19406;SDS011;9839;53.364;-1.204;2023-05-07T09:48:41;2.63;;;1.40;;
19406;SDS011;9839;53.364;-1.204;2023-05-07T09:51:15;2.63;;;1.67;;
19406;SDS011;9839;53.364;-1.204;2023-05-07T09:53:47;2.25;;;1.17;;
19406;SDS011;9839;53.364;-1.204;2023-05-07T09:56:13;1.83;;;1.30;;
19406;SDS011;9839;53.364;-1.204;2023-05-07T09:58:40;4.13;;;1.75;;
19406;SDS011;9839;53.364;-1.204;2023-05-07T10:01:07;2.72;;;2.20;;
19406;SDS011;9839;53.364;-1.204;2023-05-07T10:03:32;3.75;;;2.00;;
19406;SDS011;9839;53.364;-1.204;2023-05-07T10:05:58;2.90;;;2.10;;
19406;SDS011;9839;53.364;-1.204;2023-05-07T10:08:24;3.45;;;1.63;;
19406;SDS011;9839;53.364;-1.204;2023-05-07T10:10:50;3.13;;;2.10;;
19406;SDS011;9839;53.364;-1.204;2023-05-07T10:13:16;2.72;;;1.70;;
19406;SDS011;9839;53.364;-1.204;2023-05-07T10:15:42;2.38;;;1.40;;
19406;SDS011;9839;53.364;-1.204;2023-05-07T10:18:08;1.92;;;1.48;;
19406;SDS011;9839;53.364;-1.204;2023-05-07T10:20:34;1.52;;;1.25;;
19406;SDS011;9839;53.364;-1.204;2023-05-07T10:23:02;2.95;;;1.85;;
19406;SDS011;9839;53.364;-1.204;2023-05-07T10:25:30;3.08;;;2.25;;
19406;SDS011;9839;53.364;-1.204;2023-05-07T10:27:57;2.92;;;1.75;;
19406;SDS011;9839;53.364;-1.204;2023-05-07T10:32:57;2.15;;;1.67;;
19406;SDS011;9839;53.364;-1.204;2023-05-07T10:35:36;3.45;;;2.25;;
19406;SDS011;9839;53.364;-1.204;2023-05-07T10:38:04;3.88;;;1.83;;
19406;SDS011;9839;53.364;-1.204;2023-05-07T10:40:33;2.90;;;1.25;;
19406;SDS011;9839;53.364;-1.204;2023-05-07T10:42:59;2.58;;;1.67;;
19406;SDS011;9839;53.364;-1.204;2023-05-07T10:45:26;2.80;;;1.95;;
19406;SDS011;9839;53.364;-1.204;2023-05-07T10:48:11;3.97;;;2.50;;
19406;SDS011;9839;53.364;-1.204;2023-05-07T10:50:37;3.55;;;2.22;;
19406;SDS011;9839;53.364;-1.204;2023-05-07T10:55:44;6.18;;;1.95;;
19406;SDS011;9839;53.364;-1.204;2023-05-07T10:58:25;3.10;;;1.95;;
19406;SDS011;9839;53.364;-1.204;2023-05-07T11:00:58;3.47;;;2.00;;
19406;SDS011;9839;53.364;-1.204;2023-05-07T11:03:25;3.33;;;2.30;;
19406;SDS011;9839;53.364;-1.204;2023-05-07T11:11:33;4.35;;;2.05;;
19406;SDS011;9839;53.364;-1.204;2023-05-07T11:17:07;2.65;;;1.90;;
19406;SDS011;9839;53.364;-1.204;2023-05-07T11:19:52;2.88;;;1.92;;
19406;SDS011;9839;53.364;-1.204;2023-05-07T11:25:00;3.72;;;2.70;;
19406;SDS011;9839;53.364;-1.204;2023-05-07T11:27:26;3.60;;;2.50;;
19406;SDS011;9839;53.364;-1.204;2023-05-07T11:29:52;4.55;;;2.60;;
19406;SDS011;9839;53.364;-1.204;2023-05-07T11:32:23;4.72;;;3.28;;
19406;SDS011;9839;53.364;-1.204;2023-05-07T11:34:56;4.55;;;2.63;;
19406;SDS011;9839;53.364;-1.204;2023-05-07T11:37:24;3.72;;;2.40;;
19406;SDS011;9839;53.364;-1.204;2023-05-07T11:39:50;5.57;;;2.80;;
19406;SDS011;9839;53.364;-1.204;2023-05-07T11:45:22;8.70;;;4.10;;
19406;SDS011;9839;53.364;-1.204;2023-05-07T11:47:49;4.53;;;3.50;;
19406;SDS011;9839;53.364;-1.204;2023-05-07T11:50:14;7.88;;;3.60;;
19406;SDS011;9839;53.364;-1.204;2023-05-07T11:52:40;5.88;;;3.53;;
19406;SDS011;9839;53.364;-1.204;2023-05-07T11:55:17;5.15;;;3.70;;
19406;SDS011;9839;53.364;-1.204;2023-05-07T11:57:44;7.68;;;3.60;;
19406;SDS011;9839;53.364;-1.204;2023-05-07T12:00:10;8.20;;;3.60;;
19406;SDS011;9839;53.364;-1.204;2023-05-07T12:02:36;7.28;;;3.60;;
19406;SDS011;9839;53.364;-1.204;2023-05-07T12:05:01;5.05;;;3.10;;
19406;SDS011;9839;53.364;-1.204;2023-05-07T12:07:27;6.57;;;3.38;;
19406;SDS011;9839;53.364;-1.204;2023-05-07T12:09:53;6.53;;;4.03;;
19406;SDS011;9839;53.364;-1.204;2023-05-07T12:12:18;8.80;;;4.22;;
19406;SDS011;9839;53.364;-1.204;2023-05-07T12:14:45;5.72;;;3.03;;
19406;SDS011;9839;53.364;-1.204;2023-05-07T12:17:11;6.20;;;3.08;;
19406;SDS011;9839;53.364;-1.204;2023-05-07T12:19:38;6.28;;;2.80;;
19406;SDS011;9839;53.364;-1.204;2023-05-07T12:22:05;5.70;;;3.20;;
19406;SDS011;9839;53.364;-1.204;2023-05-07T12:24:46;8.38;;;3.08;;
19406;SDS011;9839;53.364;-1.204;2023-05-07T12:27:13;4.30;;;2.53;;
19406;SDS011;9839;53.364;-1.204;2023-05-07T12:29:38;4.28;;;2.67;;
19406;SDS011;9839;53.364;-1.204;2023-05-07T12:32:06;5.38;;;2.88;;
19406;SDS011;9839;53.364;-1.204;2023-05-07T12:34:32;6.07;;;2.35;;
19406;SDS011;9839;53.364;-1.204;2023-05-07T12:36:57;4.47;;;2.33;;
19406;SDS011;9839;53.364;-1.204;2023-05-07T12:39:27;3.75;;;2.35;;
19406;SDS011;9839;53.364;-1.204;2023-05-07T12:41:53;3.13;;;2.00;;
19406;SDS011;9839;53.364;-1.204;2023-05-07T12:44:24;3.28;;;1.73;;
19406;SDS011;9839;53.364;-1.204;2023-05-07T12:46:50;5.00;;;1.75;;
19406;SDS011;9839;53.364;-1.204;2023-05-07T12:49:16;3.97;;;2.20;;
19406;SDS011;9839;53.364;-1.204;2023-05-07T12:51:43;2.45;;;1.85;;
19406;SDS011;9839;53.364;-1.204;2023-05-07T12:54:08;4.15;;;2.13;;
19406;SDS011;9839;53.364;-1.204;2023-05-07T12:56:37;6.60;;;2.10;;
19406;SDS011;9839;53.364;-1.204;2023-05-07T12:59:02;2.40;;;1.90;;
19406;SDS011;9839;53.364;-1.204;2023-05-07T13:01:29;4.70;;;2.40;;
19406;SDS011;9839;53.364;-1.204;2023-05-07T13:03:55;2.67;;;1.83;;
19406;SDS011;9839;53.364;-1.204;2023-05-07T13:06:21;3.83;;;1.80;;
19406;SDS011;9839;53.364;-1.204;2023-05-07T13:08:46;2.95;;;1.60;;
19406;SDS011;9839;53.364;-1.204;2023-05-07T13:11:12;3.10;;;1.50;;
19406;SDS011;9839;53.364;-1.204;2023-05-07T13:13:39;4.22;;;2.80;;
19406;SDS011;9839;53.364;-1.204;2023-05-07T13:16:06;3.92;;;2.30;;
19406;SDS011;9839;53.364;-1.204;2023-05-07T13:18:33;2.20;;;1.60;;
19406;SDS011;9839;53.364;-1.204;2023-05-07T13:20:59;1.85;;;1.60;;
19406;SDS011;9839;53.364;-1.204;2023-05-07T13:23:25;3.55;;;1.67;;
19406;SDS011;9839;53.364;-1.204;2023-05-07T13:25:51;4.60;;;1.90;;
19406;SDS011;9839;53.364;-1.204;2023-05-07T13:28:20;2.00;;;1.45;;
19406;SDS011;9839;53.364;-1.204;2023-05-07T13:30:46;3.58;;;1.73;;
19406;SDS011;9839;53.364;-1.204;2023-05-07T13:33:12;3.80;;;1.05;;
19406;SDS011;9839;53.364;-1.204;2023-05-07T13:35:38;2.17;;;1.30;;
19406;SDS011;9839;53.364;-1.204;2023-05-07T13:38:04;1.75;;;1.20;;
19406;SDS011;9839;53.364;-1.204;2023-05-07T13:40:29;2.90;;;1.30;;
19406;SDS011;9839;53.364;-1.204;2023-05-07T13:42:56;1.77;;;1.23;;
19406;SDS011;9839;53.364;-1.204;2023-05-07T13:45:23;2.80;;;1.70;;
19406;SDS011;9839;53.364;-1.204;2023-05-07T13:47:51;4.72;;;1.30;;
19406;SDS011;9839;53.364;-1.204;2023-05-07T13:50:17;3.25;;;1.55;;
19406;SDS011;9839;53.364;-1.204;2023-05-07T13:52:43;2.53;;;1.30;;
19406;SDS011;9839;53.364;-1.204;2023-05-07T13:55:15;4.57;;;1.70;;
19406;SDS011;9839;53.364;-1.204;2023-05-07T13:57:41;3.38;;;1.13;;
19406;SDS011;9839;53.364;-1.204;2023-05-07T14:00:07;2.10;;;1.35;;
19406;SDS011;9839;53.364;-1.204;2023-05-07T14:02:33;2.80;;;1.30;;
19406;SDS011;9839;53.364;-1.204;2023-05-07T14:04:59;2.80;;;1.30;;
19406;SDS011;9839;53.364;-1.204;2023-05-07T14:07:24;4.70;;;1.50;;
19406;SDS011;9839;53.364;-1.204;2023-05-07T14:09:50;3.47;;;1.40;;
19406;SDS011;9839;53.364;-1.204;2023-05-07T14:12:15;3.13;;;1.30;;
19406;SDS011;9839;53.364;-1.204;2023-05-07T14:14:41;4.22;;;1.30;;
19406;SDS011;9839;53.364;-1.204;2023-05-07T14:17:07;4.57;;;0.95;;
19406;SDS011;9839;53.364;-1.204;2023-05-07T14:19:33;1.98;;;1.20;;
19406;SDS011;9839;53.364;-1.204;2023-05-07T14:21:58;2.28;;;1.42;;
19406;SDS011;9839;53.364;-1.204;2023-05-07T14:24:24;4.10;;;1.00;;
19406;SDS011;9839;53.364;-1.204;2023-05-07T14:26:50;3.22;;;1.52;;
19406;SDS011;9839;53.364;-1.204;2023-05-07T14:29:16;5.55;;;1.50;;
19406;SDS011;9839;53.364;-1.204;2023-05-07T14:31:44;5.80;;;1.60;;
19406;SDS011;9839;53.364;-1.204;2023-05-07T14:34:10;3.80;;;1.73;;
19406;SDS011;9839;53.364;-1.204;2023-05-07T14:36:35;3.38;;;1.25;;
19406;SDS011;9839;53.364;-1.204;2023-05-07T14:39:02;3.83;;;1.30;;
19406;SDS011;9839;53.364;-1.204;2023-05-07T14:41:28;7.20;;;1.45;;
19406;SDS011;9839;53.364;-1.204;2023-05-07T14:43:53;3.08;;;1.50;;
19406;SDS011;9839;53.364;-1.204;2023-05-07T14:46:21;5.25;;;1.35;;
19406;SDS011;9839;53.364;-1.204;2023-05-07T14:48:46;1.98;;;1.25;;
19406;SDS011;9839;53.364;-1.204;2023-05-07T14:51:12;2.60;;;1.60;;
19406;SDS011;9839;53.364;-1.204;2023-05-07T14:53:38;5.18;;;1.55;;
19406;SDS011;9839;53.364;-1.204;2023-05-07T14:56:04;1.70;;;1.20;;